createdAt,value
2019-02-14T00:00:02.224Z,96.36
2019-02-14T00:01:07.602Z,96.31
2019-02-14T00:02:13.681Z,96.49
2019-02-14T00:03:19.593Z,96.74
2019-02-14T00:04:25.490Z,96.16
2019-02-14T00:05:31.452Z,95.86
2019-02-14T00:06:37.341Z,95.69
2019-02-14T00:07:43.309Z,95.66
2019-02-14T00:08:49.217Z,94.89
2019-02-14T00:09:55.127Z,94.71
2019-02-14T00:11:01.070Z,95.27
2019-02-14T00:12:06.954Z,96.08
2019-02-14T00:13:12.887Z,97.48
2019-02-14T00:14:18.766Z,98.00
2019-02-14T00:15:24.677Z,98.93
2019-02-14T00:16:30.625Z,98.91
2019-02-14T00:17:36.539Z,98.33
2019-02-14T00:18:43.381Z,98.05
2019-02-14T00:19:49.242Z,98.26
2019-02-14T00:20:55.181Z,98.69
2019-02-14T00:22:01.161Z,97.43
2019-02-14T00:23:07.077Z,97.10
2019-02-14T00:24:12.956Z,97.36
2019-02-14T00:25:18.870Z,97.74
2019-02-14T00:26:24.747Z,97.82
2019-02-14T00:27:30.692Z,98.28
2019-02-14T00:28:36.624Z,97.91
2019-02-14T00:29:42.647Z,97.93
2019-02-14T00:30:48.563Z,97.34
2019-02-14T00:31:54.476Z,96.93
2019-02-14T00:33:00.368Z,97.05
2019-02-14T00:34:06.267Z,97.00
2019-02-14T00:35:11.503Z,97.08
2019-02-14T00:36:17.449Z,96.84
2019-02-14T00:37:23.374Z,96.13
2019-02-14T00:38:28.996Z,95.68
2019-02-14T00:39:35.735Z,95.24
2019-02-14T00:40:41.643Z,94.51
2019-02-14T00:41:48.189Z,94.25
2019-02-14T00:42:54.486Z,93.90
2019-02-14T00:44:00.375Z,93.71
2019-02-14T00:45:05.624Z,92.90
2019-02-14T00:46:11.550Z,93.01
2019-02-14T00:47:17.197Z,93.66
2019-02-14T00:48:23.154Z,94.15
2019-02-14T00:49:29.056Z,94.49
2019-02-14T00:50:35.054Z,94.75
2019-02-14T00:51:40.964Z,93.99
2019-02-14T00:52:46.883Z,93.63
2019-02-14T00:53:52.771Z,94.18
2019-02-14T00:54:58.697Z,95.14
2019-02-14T00:56:04.626Z,94.39
2019-02-14T00:57:10.516Z,94.40
2019-02-14T00:58:16.416Z,94.49
2019-02-14T00:59:22.354Z,94.07
2019-02-14T01:00:28.250Z,94.72
2019-02-14T01:01:33.930Z,95.42
2019-02-14T01:02:39.853Z,94.60
2019-02-14T01:03:45.830Z,95.22
2019-02-14T01:04:51.697Z,94.43
2019-02-14T01:05:57.633Z,94.61
2019-02-14T01:07:03.325Z,94.85
2019-02-14T01:08:09.296Z,95.34
2019-02-14T01:09:15.198Z,95.86
2019-02-14T01:10:21.136Z,96.33
2019-02-14T01:11:26.707Z,96.53
2019-02-14T01:12:32.616Z,96.35
2019-02-14T01:13:38.529Z,96.30
2019-02-14T01:14:44.440Z,96.33
2019-02-14T01:15:50.194Z,96.32
2019-02-14T01:16:56.098Z,96.71
2019-02-14T01:18:02.004Z,96.51
2019-02-14T01:19:07.929Z,96.24
2019-02-14T01:20:13.833Z,96.21
2019-02-14T01:21:19.796Z,95.56
2019-02-14T01:22:25.714Z,95.62
2019-02-14T01:23:31.277Z,95.33
2019-02-14T01:24:37.225Z,95.44
2019-02-14T01:25:43.386Z,95.56
2019-02-14T01:26:49.296Z,95.75
2019-02-14T01:27:55.203Z,95.96
2019-02-14T01:29:00.789Z,96.33
2019-02-14T01:30:06.002Z,95.06
2019-02-14T01:31:11.938Z,94.58
2019-02-14T01:32:17.843Z,95.87
2019-02-14T01:33:23.750Z,96.95
2019-02-14T01:34:29.698Z,97.22
2019-02-14T01:35:41.806Z,96.89
2019-02-14T01:36:41.584Z,96.53
2019-02-14T01:37:48.269Z,97.39
2019-02-14T01:38:53.456Z,97.38
2019-02-14T01:39:59.386Z,97.48
2019-02-14T01:41:05.326Z,97.46
2019-02-14T01:42:11.208Z,96.82
2019-02-14T01:43:17.148Z,95.84
2019-02-14T01:44:23.058Z,95.08
2019-02-14T01:45:28.995Z,95.02
2019-02-14T01:46:35.006Z,95.48
2019-02-14T01:47:40.931Z,95.74
2019-02-14T01:48:46.922Z,96.09
2019-02-14T01:49:52.851Z,95.78
2019-02-14T01:50:58.811Z,95.79
2019-02-14T01:52:04.698Z,95.88
2019-02-14T01:53:10.618Z,96.05
2019-02-14T01:54:16.136Z,96.66
2019-02-14T01:55:22.301Z,96.65
2019-02-14T01:56:28.221Z,96.36
2019-02-14T01:57:34.138Z,96.37
2019-02-14T01:58:40.060Z,96.50
2019-02-14T01:59:45.967Z,96.11
2019-02-14T02:00:51.575Z,96.22
2019-02-14T02:02:01.759Z,96.43
2019-02-14T02:03:07.693Z,95.92
2019-02-14T02:04:13.648Z,95.00
2019-02-14T02:05:19.601Z,94.52
2019-02-14T02:06:25.481Z,94.69
2019-02-14T02:07:32.096Z,95.56
2019-02-14T02:08:38.194Z,96.17
2019-02-14T02:09:43.893Z,96.54
2019-02-14T02:10:49.780Z,96.74
2019-02-14T02:11:55.716Z,96.26
2019-02-14T02:13:01.700Z,96.21
2019-02-14T02:14:07.640Z,96.55
2019-02-14T02:15:12.636Z,96.88
2019-02-14T02:16:18.553Z,97.95
2019-02-14T02:17:24.460Z,98.46
2019-02-14T02:18:30.361Z,98.95
2019-02-14T02:19:36.300Z,99.19
2019-02-14T02:20:42.255Z,99.55
2019-02-14T02:21:48.204Z,99.91
2019-02-14T02:22:54.106Z,100.00
2019-02-14T02:24:00.070Z,100.00
2019-02-14T02:25:06.070Z,100.00
2019-02-14T02:26:11.987Z,99.48
2019-02-14T02:27:17.870Z,99.34
2019-02-14T02:28:24.498Z,99.70
2019-02-14T02:29:31.006Z,99.52
2019-02-14T02:30:36.956Z,99.85
2019-02-14T02:31:42.863Z,99.92
2019-02-14T02:32:48.761Z,99.97
2019-02-14T02:33:54.633Z,99.75
2019-02-14T02:35:00.599Z,99.59
2019-02-14T02:36:06.504Z,99.43
2019-02-14T02:37:12.483Z,98.85
2019-02-14T02:38:18.429Z,98.93
2019-02-14T02:39:24.358Z,98.53
2019-02-14T02:40:30.270Z,97.95
2019-02-14T02:41:36.200Z,97.79
2019-02-14T02:42:42.128Z,98.32
2019-02-14T02:43:48.072Z,98.88
2019-02-14T02:44:54.002Z,98.95
2019-02-14T02:45:59.950Z,98.71
2019-02-14T02:47:05.878Z,98.53
2019-02-14T02:48:12.617Z,98.38
2019-02-14T02:49:19.448Z,98.51
2019-02-14T02:50:25.896Z,98.04
2019-02-14T02:51:31.824Z,97.96
2019-02-14T02:52:37.731Z,98.44
2019-02-14T02:53:43.643Z,98.81
2019-02-14T02:54:49.592Z,98.33
2019-02-14T02:55:54.862Z,98.17
2019-02-14T02:57:00.777Z,98.15
2019-02-14T02:58:06.346Z,98.18
2019-02-14T02:59:14.140Z,99.26
2019-02-14T03:00:17.591Z,99.71
2019-02-14T03:01:23.469Z,100.00
2019-02-14T03:02:29.371Z,99.93
2019-02-14T03:03:35.291Z,99.43
2019-02-14T03:04:40.854Z,98.45
2019-02-14T03:05:46.775Z,99.22
2019-02-14T03:06:52.724Z,99.74
2019-02-14T03:07:58.609Z,100.00
2019-02-14T03:09:03.618Z,100.00
2019-02-14T03:10:10.434Z,100.00
2019-02-14T03:11:16.851Z,100.00
2019-02-14T03:12:22.628Z,100.00
2019-02-14T03:13:28.562Z,100.00
2019-02-14T03:14:34.457Z,100.00
2019-02-14T03:15:40.395Z,100.00
2019-02-14T03:16:46.313Z,100.00
2019-02-14T03:17:52.231Z,100.00
2019-02-14T03:18:58.198Z,100.00
2019-02-14T03:20:03.467Z,100.00
2019-02-14T03:21:09.438Z,100.00
2019-02-14T03:22:15.365Z,100.00
2019-02-14T03:23:21.304Z,100.00
2019-02-14T03:24:27.250Z,100.00
2019-02-14T03:25:33.205Z,100.00
2019-02-14T03:26:39.141Z,100.00
2019-02-14T03:27:45.045Z,100.00
2019-02-14T03:28:50.998Z,100.00
2019-02-14T03:29:56.980Z,100.00
2019-02-14T03:31:03.802Z,100.00
2019-02-14T03:32:10.192Z,100.00
2019-02-14T03:33:16.088Z,100.00
2019-02-14T03:34:21.968Z,100.00
2019-02-14T03:35:27.906Z,100.00
2019-02-14T03:36:33.862Z,100.00
2019-02-14T03:37:39.429Z,100.00
2019-02-14T03:38:45.330Z,100.00
2019-02-14T03:39:51.303Z,100.00
2019-02-14T03:40:57.300Z,100.00
2019-02-14T03:42:02.997Z,100.00
2019-02-14T03:43:08.894Z,100.00
2019-02-14T03:44:14.809Z,100.00
2019-02-14T03:45:20.088Z,100.00
2019-02-14T03:46:25.997Z,100.00
2019-02-14T03:47:31.969Z,100.00
2019-02-14T03:48:37.995Z,100.00
2019-02-14T03:49:44.470Z,100.00
2019-02-14T03:50:50.090Z,100.00
2019-02-14T03:51:56.309Z,100.00
2019-02-14T03:53:02.730Z,100.00
2019-02-14T03:54:08.282Z,100.00
2019-02-14T03:55:14.242Z,100.00
2019-02-14T03:56:20.178Z,100.00
2019-02-14T03:57:26.089Z,100.00
2019-02-14T03:58:31.995Z,100.00
2019-02-14T03:59:37.970Z,100.00
2019-02-14T04:00:43.901Z,100.00
2019-02-14T04:01:49.832Z,100.00
2019-02-14T04:02:55.857Z,100.00
2019-02-14T04:04:01.938Z,100.00
2019-02-14T04:05:07.174Z,100.00
2019-02-14T04:06:12.792Z,100.00
2019-02-14T04:07:18.018Z,100.00
2019-02-14T04:08:23.903Z,100.00
2019-02-14T04:09:29.847Z,100.00
2019-02-14T04:10:35.784Z,100.00
2019-02-14T04:11:41.694Z,100.00
2019-02-14T04:12:47.619Z,100.00
2019-02-14T04:13:53.539Z,100.00
2019-02-14T04:14:59.433Z,100.00
2019-02-14T04:16:05.410Z,100.00
2019-02-14T04:17:11.358Z,100.00
2019-02-14T04:18:17.292Z,100.00
2019-02-14T04:19:23.243Z,100.00
2019-02-14T04:20:29.174Z,100.00
2019-02-14T04:21:35.111Z,100.00
2019-02-14T04:22:41.032Z,100.00
2019-02-14T04:23:46.947Z,99.98
2019-02-14T04:24:52.888Z,100.00
2019-02-14T04:25:58.837Z,100.00
2019-02-14T04:27:04.476Z,100.00
2019-02-14T04:28:10.382Z,100.00
2019-02-14T04:29:16.321Z,100.00
2019-02-14T04:30:22.306Z,100.00
2019-02-14T04:31:28.282Z,100.00
2019-02-14T04:32:34.204Z,100.00
2019-02-14T04:33:40.125Z,100.00
2019-02-14T04:34:46.710Z,100.00
2019-02-14T04:35:53.114Z,100.00
2019-02-14T04:36:59.293Z,100.00
2019-02-14T04:38:05.187Z,100.00
2019-02-14T04:39:11.091Z,100.00
2019-02-14T04:40:17.007Z,100.00
2019-02-14T04:41:22.975Z,100.00
2019-02-14T04:42:28.927Z,100.00
2019-02-14T04:43:34.795Z,100.00
2019-02-14T04:44:40.705Z,100.00
2019-02-14T04:45:46.722Z,100.00
2019-02-14T04:46:52.630Z,100.00
2019-02-14T04:47:58.583Z,100.00
2019-02-14T04:49:04.550Z,100.00
2019-02-14T04:50:09.796Z,100.00
2019-02-14T04:51:15.752Z,100.00
2019-02-14T04:52:21.713Z,100.00
2019-02-14T04:53:27.690Z,100.00
2019-02-14T04:54:33.644Z,100.00
2019-02-14T04:55:40.108Z,100.00
2019-02-14T04:56:46.560Z,100.00
2019-02-14T04:57:52.484Z,100.00
2019-02-14T04:58:58.449Z,100.00
2019-02-14T05:00:03.751Z,100.00
2019-02-14T05:01:09.722Z,100.00
2019-02-14T05:02:15.613Z,100.00
2019-02-14T05:03:21.570Z,100.00
2019-02-14T05:04:27.469Z,100.00
2019-02-14T05:05:33.451Z,100.00
2019-02-14T05:06:44.419Z,100.00
2019-02-14T05:07:45.054Z,100.00
2019-02-14T05:08:50.946Z,100.00
2019-02-14T05:09:56.894Z,100.00
2019-02-14T05:11:02.859Z,100.00
2019-02-14T05:12:08.795Z,100.00
2019-02-14T05:13:14.682Z,100.00
2019-02-14T05:14:20.597Z,100.00
2019-02-14T05:15:26.564Z,100.00
2019-02-14T05:16:33.359Z,100.00
2019-02-14T05:17:39.992Z,100.00
2019-02-14T05:18:45.913Z,100.00
2019-02-14T05:19:51.843Z,100.00
2019-02-14T05:20:57.739Z,100.00
2019-02-14T05:22:03.716Z,100.00
2019-02-14T05:23:09.653Z,100.00
2019-02-14T05:24:15.576Z,100.00
2019-02-14T05:25:21.532Z,100.00
2019-02-14T05:26:27.435Z,100.00
2019-02-14T05:27:33.385Z,100.00
2019-02-14T05:28:39.294Z,100.00
2019-02-14T05:29:45.189Z,100.00
2019-02-14T05:30:51.120Z,100.00
2019-02-14T05:31:57.095Z,100.00
2019-02-14T05:33:03.049Z,100.00
2019-02-14T05:34:09.013Z,100.00
2019-02-14T05:35:14.939Z,100.00
2019-02-14T05:36:20.868Z,100.00
2019-02-14T05:37:26.819Z,100.00
2019-02-14T05:38:32.712Z,100.00
2019-02-14T05:39:38.641Z,100.00
2019-02-14T05:40:44.571Z,100.00
2019-02-14T05:41:50.525Z,100.00
2019-02-14T05:42:56.486Z,100.00
2019-02-14T05:44:02.391Z,100.00
2019-02-14T05:45:10.254Z,100.00
2019-02-14T05:46:16.204Z,100.00
2019-02-14T05:47:22.133Z,100.00
2019-02-14T05:48:28.036Z,100.00
2019-02-14T05:49:34.041Z,100.00
2019-02-14T05:50:39.962Z,100.00
2019-02-14T05:51:45.842Z,100.00
2019-02-14T05:52:51.794Z,100.00
2019-02-14T05:53:57.702Z,100.00
2019-02-14T05:55:03.257Z,100.00
2019-02-14T05:56:09.212Z,100.00
2019-02-14T05:57:15.192Z,100.00
2019-02-14T05:58:21.082Z,100.00
2019-02-14T05:59:27.005Z,100.00
2019-02-14T06:00:32.561Z,100.00
2019-02-14T06:01:38.464Z,100.00
2019-02-14T06:02:44.411Z,100.00
2019-02-14T06:03:50.338Z,100.00
2019-02-14T06:04:56.261Z,100.00
2019-02-14T06:06:02.175Z,100.00
2019-02-14T06:07:08.166Z,100.00
2019-02-14T06:08:14.102Z,100.00
2019-02-14T06:09:20.056Z,100.00
2019-02-14T06:10:25.992Z,100.00
2019-02-14T06:11:31.914Z,100.00
2019-02-14T06:12:37.875Z,100.00
2019-02-14T06:13:43.823Z,100.00
2019-02-14T06:14:49.758Z,100.00
2019-02-14T06:15:55.734Z,100.00
2019-02-14T06:17:01.635Z,100.00
2019-02-14T06:18:07.808Z,100.00
2019-02-14T06:19:13.721Z,100.00
2019-02-14T06:20:19.663Z,100.00
2019-02-14T06:21:25.599Z,100.00
2019-02-14T06:22:31.559Z,100.00
2019-02-14T06:23:37.475Z,100.00
2019-02-14T06:24:43.391Z,100.00
2019-02-14T06:25:49.270Z,100.00
2019-02-14T06:26:55.234Z,100.00
2019-02-14T06:28:01.197Z,100.00
2019-02-14T06:29:07.076Z,100.00
2019-02-14T06:30:12.331Z,100.00
2019-02-14T06:31:18.279Z,100.00
2019-02-14T06:32:24.239Z,100.00
2019-02-14T06:33:30.139Z,100.00
2019-02-14T06:34:36.094Z,100.00
2019-02-14T06:35:42.020Z,100.00
2019-02-14T06:36:47.923Z,100.00
2019-02-14T06:37:53.182Z,100.00
2019-02-14T06:38:59.115Z,100.00
2019-02-14T06:40:04.385Z,100.00
2019-02-14T06:41:10.406Z,100.00
2019-02-14T06:42:16.359Z,100.00
2019-02-14T06:43:22.277Z,100.00
2019-02-14T06:44:28.219Z,100.00
2019-02-14T06:45:34.125Z,100.00
2019-02-14T06:46:40.072Z,100.00
2019-02-14T06:47:45.999Z,100.00
2019-02-14T06:48:51.944Z,100.00
2019-02-14T06:49:57.841Z,100.00
2019-02-14T06:51:03.763Z,100.00
2019-02-14T06:52:09.677Z,100.00
2019-02-14T06:53:15.650Z,100.00
2019-02-14T06:54:21.554Z,100.00
2019-02-14T06:55:27.468Z,100.00
2019-02-14T06:56:33.418Z,100.00
2019-02-14T06:57:39.401Z,100.00
2019-02-14T06:58:45.371Z,100.00
2019-02-14T06:59:51.283Z,100.00
2019-02-14T07:00:57.211Z,100.00
2019-02-14T07:02:04.008Z,100.00
2019-02-14T07:03:10.450Z,100.00
2019-02-14T07:04:16.395Z,100.00
2019-02-14T07:05:23.232Z,100.00
2019-02-14T07:06:28.336Z,100.00
2019-02-14T07:07:34.249Z,100.00
2019-02-14T07:08:40.262Z,100.00
2019-02-14T07:09:46.183Z,100.00
2019-02-14T07:10:52.100Z,100.00
2019-02-14T07:11:57.997Z,100.00
2019-02-14T07:13:03.612Z,100.00
2019-02-14T07:14:09.550Z,100.00
2019-02-14T07:15:14.776Z,100.00
2019-02-14T07:16:20.663Z,100.00
2019-02-14T07:17:26.583Z,100.00
2019-02-14T07:18:32.601Z,100.00
2019-02-14T07:19:38.543Z,100.00
2019-02-14T07:20:44.156Z,100.00
2019-02-14T07:21:50.055Z,100.00
2019-02-14T07:22:56.007Z,100.00
2019-02-14T07:24:01.956Z,100.00
2019-02-14T07:25:07.201Z,100.00
2019-02-14T07:26:13.147Z,100.00
2019-02-14T07:27:19.140Z,100.00
2019-02-14T07:28:25.133Z,100.00
2019-02-14T07:29:31.214Z,100.00
2019-02-14T07:30:37.125Z,100.00
2019-02-14T07:31:43.120Z,100.00
2019-02-14T07:32:49.049Z,100.00
2019-02-14T07:33:55.016Z,100.00
2019-02-14T07:35:00.930Z,100.00
2019-02-14T07:36:06.657Z,100.00
2019-02-14T07:37:12.602Z,100.00
2019-02-14T07:38:18.323Z,100.00
2019-02-14T07:39:24.221Z,100.00
2019-02-14T07:40:30.213Z,100.00
2019-02-14T07:41:36.126Z,100.00
2019-02-14T07:42:41.717Z,100.00
2019-02-14T07:43:47.684Z,100.00
2019-02-14T07:44:53.612Z,100.00
2019-02-14T07:45:59.513Z,100.00
2019-02-14T07:47:05.416Z,100.00
2019-02-14T07:48:11.402Z,100.00
2019-02-14T07:49:17.374Z,100.00
2019-02-14T07:50:23.295Z,100.00
2019-02-14T07:51:29.236Z,100.00
2019-02-14T07:52:35.151Z,100.00
2019-02-14T07:53:41.138Z,100.00
2019-02-14T07:54:47.084Z,100.00
2019-02-14T07:55:53.059Z,100.00
2019-02-14T07:56:59.042Z,100.00
2019-02-14T07:58:04.989Z,100.00
2019-02-14T07:59:10.875Z,100.00
2019-02-14T08:00:16.095Z,100.00
2019-02-14T08:01:22.128Z,100.00
2019-02-14T08:02:28.083Z,100.00
2019-02-14T08:03:34.167Z,100.00
2019-02-14T08:04:40.065Z,100.00
2019-02-14T08:05:46.541Z,100.00
2019-02-14T08:06:52.934Z,100.00
2019-02-14T08:08:00.627Z,100.00
2019-02-14T08:09:03.960Z,100.00
2019-02-14T08:10:11.012Z,100.00
2019-02-14T08:11:16.932Z,100.00
2019-02-14T08:12:22.905Z,100.00
2019-02-14T08:13:28.828Z,100.00
2019-02-14T08:14:34.732Z,100.00
2019-02-14T08:15:40.639Z,100.00
2019-02-14T08:16:46.577Z,100.00
2019-02-14T08:17:52.488Z,100.00
2019-02-14T08:19:00.059Z,100.00
2019-02-14T08:20:03.734Z,100.00
2019-02-14T08:21:09.624Z,99.25
2019-02-14T08:22:15.555Z,98.90
2019-02-14T08:23:21.505Z,98.22
2019-02-14T08:24:27.415Z,98.16
2019-02-14T08:25:33.290Z,98.86
2019-02-14T08:26:39.904Z,98.52
2019-02-14T08:27:46.349Z,98.16
2019-02-14T08:28:52.280Z,97.83
2019-02-14T08:29:58.181Z,97.79
2019-02-14T08:31:04.061Z,97.39
2019-02-14T08:32:09.973Z,96.85
2019-02-14T08:33:15.875Z,96.63
2019-02-14T08:34:21.792Z,96.52
2019-02-14T08:35:27.695Z,96.77
2019-02-14T08:36:33.623Z,97.02
2019-02-14T08:37:45.364Z,96.07
2019-02-14T08:38:45.669Z,95.81
2019-02-14T08:39:51.615Z,95.05
2019-02-14T08:40:57.493Z,93.09
2019-02-14T08:42:03.411Z,92.49
2019-02-14T08:43:09.312Z,92.50
2019-02-14T08:44:15.257Z,92.62
2019-02-14T08:45:21.179Z,93.37
2019-02-14T08:46:27.162Z,93.12
2019-02-14T08:47:33.233Z,92.54
2019-02-14T08:48:39.370Z,92.15
2019-02-14T08:49:45.252Z,92.38
2019-02-14T08:50:51.548Z,93.84
2019-02-14T08:51:57.456Z,93.36
2019-02-14T08:53:03.362Z,93.11
2019-02-14T08:54:09.331Z,92.36
2019-02-14T08:55:15.244Z,92.73
2019-02-14T08:56:21.131Z,93.01
2019-02-14T08:57:27.021Z,92.71
2019-02-14T08:58:33.042Z,91.94
2019-02-14T08:59:38.956Z,91.46
2019-02-14T09:00:44.884Z,90.82
2019-02-14T09:01:50.819Z,90.82
2019-02-14T09:02:56.785Z,91.28
2019-02-14T09:04:02.691Z,90.47
2019-02-14T09:05:07.919Z,90.50
2019-02-14T09:06:13.807Z,89.60
2019-02-14T09:07:19.733Z,89.14
2019-02-14T09:08:25.683Z,90.33
2019-02-14T09:09:31.586Z,91.04
2019-02-14T09:10:37.740Z,91.27
2019-02-14T09:11:43.670Z,90.41
2019-02-14T09:12:49.604Z,90.87
2019-02-14T09:13:55.634Z,90.19
2019-02-14T09:15:01.530Z,89.50
2019-02-14T09:16:07.451Z,89.25
2019-02-14T09:17:13.366Z,89.95
2019-02-14T09:18:19.283Z,89.79
2019-02-14T09:19:25.189Z,90.41
2019-02-14T09:20:31.072Z,89.86
2019-02-14T09:21:36.993Z,89.93
2019-02-14T09:22:43.052Z,90.18
2019-02-14T09:23:48.977Z,90.44
2019-02-14T09:24:54.900Z,90.93
2019-02-14T09:26:02.392Z,90.08
2019-02-14T09:27:06.511Z,89.28
2019-02-14T09:28:12.442Z,88.81
2019-02-14T09:29:18.391Z,88.78
2019-02-14T09:30:25.272Z,89.04
2019-02-14T09:31:31.757Z,89.11
2019-02-14T09:32:37.447Z,89.72
2019-02-14T09:33:43.345Z,89.65
2019-02-14T09:34:49.263Z,89.54
2019-02-14T09:35:55.210Z,89.77
2019-02-14T09:37:01.130Z,88.44
2019-02-14T09:38:07.054Z,88.47
2019-02-14T09:39:12.967Z,89.72
2019-02-14T09:40:18.272Z,89.58
2019-02-14T09:41:24.152Z,88.74
2019-02-14T09:42:30.075Z,88.50
2019-02-14T09:43:35.984Z,87.50
2019-02-14T09:44:41.943Z,87.07
2019-02-14T09:45:47.906Z,85.99
2019-02-14T09:46:53.840Z,87.66
2019-02-14T09:47:59.702Z,85.97
2019-02-14T09:49:05.911Z,86.30
2019-02-14T09:50:11.853Z,84.60
2019-02-14T09:51:19.055Z,85.30
2019-02-14T09:52:25.441Z,84.80
2019-02-14T09:53:31.374Z,84.04
2019-02-14T09:54:38.264Z,83.60
2019-02-14T09:55:43.274Z,84.21
2019-02-14T09:56:49.162Z,84.77
2019-02-14T09:57:55.081Z,84.28
2019-02-14T09:59:01.100Z,84.18
2019-02-14T10:00:06.333Z,81.62
2019-02-14T10:01:12.279Z,82.90
2019-02-14T10:02:18.216Z,81.70
2019-02-14T10:03:24.147Z,80.70
2019-02-14T10:04:30.176Z,80.06
2019-02-14T10:05:36.104Z,81.12
2019-02-14T10:06:42.013Z,79.17
2019-02-14T10:07:47.910Z,79.49
2019-02-14T10:08:53.839Z,79.84
2019-02-14T10:10:00.015Z,79.12
2019-02-14T10:11:05.997Z,78.46
2019-02-14T10:12:11.896Z,78.88
2019-02-14T10:13:17.814Z,79.55
2019-02-14T10:14:23.731Z,79.37
2019-02-14T10:15:29.305Z,78.15
2019-02-14T10:16:35.292Z,77.73
2019-02-14T10:17:41.215Z,77.93
2019-02-14T10:18:47.122Z,77.69
2019-02-14T10:19:53.068Z,78.53
2019-02-14T10:20:58.961Z,79.20
2019-02-14T10:22:04.889Z,80.32
2019-02-14T10:23:10.882Z,78.77
2019-02-14T10:24:16.773Z,78.86
2019-02-14T10:25:22.733Z,78.34
2019-02-14T10:26:28.661Z,78.51
2019-02-14T10:27:34.605Z,78.10
2019-02-14T10:28:40.532Z,77.00
2019-02-14T10:29:46.594Z,78.04
2019-02-14T10:30:52.601Z,78.53
2019-02-14T10:31:58.471Z,77.70
2019-02-14T10:33:04.085Z,77.04
2019-02-14T10:34:10.045Z,77.53
2019-02-14T10:35:16.027Z,77.56
2019-02-14T10:36:21.936Z,78.53
2019-02-14T10:37:27.875Z,78.49
2019-02-14T10:38:33.773Z,78.41
2019-02-14T10:39:39.683Z,78.40
2019-02-14T10:40:45.626Z,77.64
2019-02-14T10:41:51.558Z,77.80
2019-02-14T10:42:57.446Z,77.85
2019-02-14T10:44:03.381Z,77.59
2019-02-14T10:45:08.685Z,77.51
2019-02-14T10:46:14.591Z,77.32
2019-02-14T10:47:20.491Z,78.14
2019-02-14T10:48:26.368Z,76.90
2019-02-14T10:49:32.278Z,76.52
2019-02-14T10:50:38.220Z,76.44
2019-02-14T10:51:44.112Z,76.63
2019-02-14T10:52:50.012Z,76.29
2019-02-14T10:53:55.932Z,76.21
2019-02-14T10:55:02.419Z,76.39
2019-02-14T10:56:08.830Z,76.25
2019-02-14T10:57:14.703Z,75.45
2019-02-14T10:58:20.577Z,74.54
2019-02-14T10:59:26.530Z,74.73
2019-02-14T11:00:31.520Z,75.21
2019-02-14T11:01:37.056Z,75.45
2019-02-14T11:02:42.570Z,75.33
2019-02-14T11:03:48.392Z,74.43
2019-02-14T11:04:53.662Z,74.49
2019-02-14T11:05:59.673Z,74.75
2019-02-14T11:07:05.555Z,73.72
2019-02-14T11:08:11.455Z,72.67
2019-02-14T11:09:17.074Z,71.60
2019-02-14T11:10:22.292Z,70.78
2019-02-14T11:11:27.831Z,70.25
2019-02-14T11:12:33.752Z,70.46
2019-02-14T11:13:39.643Z,70.24
2019-02-14T11:14:45.175Z,69.40
2019-02-14T11:15:51.059Z,69.86
2019-02-14T11:16:57.457Z,68.53
2019-02-14T11:18:02.990Z,68.80
2019-02-14T11:19:08.903Z,69.10
2019-02-14T11:20:14.107Z,68.69
2019-02-14T11:21:20.065Z,68.66
2019-02-14T11:22:25.972Z,68.31
2019-02-14T11:23:31.872Z,67.97
2019-02-14T11:24:37.778Z,67.51
2019-02-14T11:25:43.735Z,66.79
2019-02-14T11:26:49.700Z,65.78
2019-02-14T11:27:55.643Z,64.92
2019-02-14T11:29:01.669Z,64.71
2019-02-14T11:30:08.279Z,63.46
2019-02-14T11:31:14.202Z,64.38
2019-02-14T11:32:20.084Z,64.98
2019-02-14T11:33:26.019Z,64.63
2019-02-14T11:34:31.940Z,65.64
2019-02-14T11:35:37.881Z,64.98
2019-02-14T11:36:43.791Z,63.87
2019-02-14T11:37:49.667Z,63.67
2019-02-14T11:38:55.555Z,62.13
2019-02-14T11:40:01.470Z,61.72
2019-02-14T11:41:07.471Z,61.17
2019-02-14T11:42:13.444Z,60.50
2019-02-14T11:43:19.328Z,60.12
2019-02-14T11:44:24.896Z,59.53
2019-02-14T11:45:30.071Z,61.04
2019-02-14T11:46:35.660Z,60.31
2019-02-14T11:47:41.563Z,60.43
2019-02-14T11:48:47.952Z,61.25
2019-02-14T11:49:53.523Z,59.73
2019-02-14T11:50:59.416Z,59.24
2019-02-14T11:52:05.357Z,59.75
2019-02-14T11:53:14.230Z,60.85
2019-02-14T11:54:17.325Z,60.03
2019-02-14T11:55:23.248Z,58.43
2019-02-14T11:56:29.223Z,58.04
2019-02-14T11:57:35.151Z,57.76
2019-02-14T11:58:41.088Z,58.93
2019-02-14T11:59:47.028Z,59.40
2019-02-14T12:00:52.720Z,59.43
2019-02-14T12:01:58.626Z,59.47
2019-02-14T12:03:04.562Z,59.66
2019-02-14T12:04:10.543Z,58.78
2019-02-14T12:05:16.503Z,59.17
2019-02-14T12:06:22.454Z,58.35
2019-02-14T12:07:28.321Z,58.78
2019-02-14T12:08:34.213Z,58.34
2019-02-14T12:09:40.149Z,57.43
2019-02-14T12:10:46.069Z,57.69
2019-02-14T12:11:51.658Z,58.34
2019-02-14T12:12:57.546Z,58.65
2019-02-14T12:14:03.458Z,57.24
2019-02-14T12:15:08.692Z,57.34
2019-02-14T12:16:14.568Z,56.76
2019-02-14T12:17:20.510Z,56.73
2019-02-14T12:18:26.376Z,57.09
2019-02-14T12:19:32.252Z,56.57
2019-02-14T12:20:38.231Z,56.54
2019-02-14T12:21:44.175Z,56.36
2019-02-14T12:22:50.063Z,58.06
2019-02-14T12:23:55.971Z,57.40
2019-02-14T12:25:01.962Z,57.89
2019-02-14T12:26:07.922Z,57.64
2019-02-14T12:27:14.055Z,56.73
2019-02-14T12:28:19.992Z,56.58
2019-02-14T12:29:25.960Z,55.79
2019-02-14T12:30:31.902Z,56.44
2019-02-14T12:31:37.843Z,55.12
2019-02-14T12:32:43.418Z,55.57
2019-02-14T12:33:49.310Z,55.94
2019-02-14T12:34:55.228Z,55.67
2019-02-14T12:36:01.211Z,55.73
2019-02-14T12:37:07.112Z,55.46
2019-02-14T12:38:13.028Z,55.88
2019-02-14T12:39:18.988Z,56.39
2019-02-14T12:40:24.915Z,56.11
2019-02-14T12:41:30.882Z,55.83
2019-02-14T12:42:36.833Z,55.79
2019-02-14T12:43:42.739Z,55.24
2019-02-14T12:44:48.621Z,55.20
2019-02-14T12:45:54.570Z,54.39
2019-02-14T12:47:00.475Z,54.11
2019-02-14T12:48:06.414Z,54.15
2019-02-14T12:49:12.346Z,55.06
2019-02-14T12:50:18.269Z,56.69
2019-02-14T12:51:24.163Z,54.42
2019-02-14T12:52:30.080Z,53.93
2019-02-14T12:53:36.006Z,54.25
2019-02-14T12:54:41.908Z,53.44
2019-02-14T12:55:47.917Z,54.50
2019-02-14T12:56:53.851Z,54.62
2019-02-14T12:57:59.809Z,55.55
2019-02-14T12:59:05.788Z,54.69
2019-02-14T13:00:14.157Z,54.78
2019-02-14T13:01:21.950Z,54.03
2019-02-14T13:02:26.953Z,54.38
2019-02-14T13:03:32.854Z,53.19
2019-02-14T13:04:38.846Z,54.33
2019-02-14T13:05:44.786Z,52.96
2019-02-14T13:06:50.703Z,52.59
2019-02-14T13:07:56.665Z,53.22
2019-02-14T13:09:02.581Z,52.60
2019-02-14T13:10:11.289Z,52.21
2019-02-14T13:11:17.276Z,51.45
2019-02-14T13:12:23.216Z,51.40
2019-02-14T13:13:29.132Z,51.38
2019-02-14T13:14:35.096Z,50.88
2019-02-14T13:15:40.320Z,51.37
2019-02-14T13:16:46.227Z,51.91
2019-02-14T13:17:51.758Z,50.45
2019-02-14T13:18:57.694Z,51.60
2019-02-14T13:20:03.637Z,53.33
2019-02-14T13:21:09.890Z,53.27
2019-02-14T13:22:15.785Z,53.12
2019-02-14T13:23:21.687Z,53.69
2019-02-14T13:24:27.598Z,53.96
2019-02-14T13:25:33.548Z,53.48
2019-02-14T13:26:39.453Z,53.46
2019-02-14T13:27:45.111Z,52.56
2019-02-14T13:28:51.049Z,52.35
2019-02-14T13:29:56.963Z,51.21
2019-02-14T13:31:02.918Z,50.72
2019-02-14T13:32:08.510Z,50.17
2019-02-14T13:33:14.180Z,49.54
2019-02-14T13:34:20.153Z,51.39
2019-02-14T13:35:26.140Z,51.13
2019-02-14T13:36:32.089Z,50.78
2019-02-14T13:37:39.960Z,52.04
2019-02-14T13:38:43.990Z,50.90
2019-02-14T13:39:49.907Z,51.44
2019-02-14T13:40:55.873Z,51.08
2019-02-14T13:42:01.785Z,51.21
2019-02-14T13:43:10.167Z,52.30
2019-02-14T13:44:13.710Z,50.98
2019-02-14T13:45:20.695Z,50.15
2019-02-14T13:46:26.639Z,50.91
2019-02-14T13:47:32.550Z,51.04
2019-02-14T13:48:38.503Z,51.54
2019-02-14T13:49:44.458Z,52.22
2019-02-14T13:50:50.423Z,50.45
2019-02-14T13:51:56.339Z,49.70
2019-02-14T13:53:02.343Z,51.19
2019-02-14T13:54:08.239Z,49.79
2019-02-14T13:55:13.528Z,48.40
2019-02-14T13:56:19.484Z,49.65
2019-02-14T13:57:25.056Z,50.41
2019-02-14T13:58:31.007Z,50.36